sensor_id;sensor_type;location;lat;lon;timestamp;pressure;altitude;pressure_sealevel;temperature;humidity
34658;BME280;20865;43.312;27.152;2023-05-27T00:00:02;100272.66;;;25.60;47.20
34658;BME280;20865;43.312;27.152;2023-05-27T00:02:30;100274.43;;;25.55;47.18
34658;BME280;20865;43.312;27.152;2023-05-27T00:04:58;100276.69;;;25.56;47.24
34658;BME280;20865;43.312;27.152;2023-05-27T00:07:25;100271.50;;;25.53;47.18
34658;BME280;20865;43.312;27.152;2023-05-27T00:09:54;100272.64;;;25.50;47.24
34658;BME280;20865;43.312;27.152;2023-05-27T00:12:22;100276.74;;;25.50;47.18
34658;BME280;20865;43.312;27.152;2023-05-27T00:14:49;100280.84;;;25.50;47.25
34658;BME280;20865;43.312;27.152;2023-05-27T00:17:17;100279.48;;;25.50;47.14
34658;BME280;20865;43.312;27.152;2023-05-27T00:19:46;100271.55;;;25.47;47.07
34658;BME280;20865;43.312;27.152;2023-05-27T00:22:15;100284.65;;;25.43;46.99
34658;BME280;20865;43.312;27.152;2023-05-27T00:24:42;100292.22;;;25.46;47.11
34658;BME280;20865;43.312;27.152;2023-05-27T00:27:10;100289.68;;;25.48;46.99
34658;BME280;20865;43.312;27.152;2023-05-27T00:29:38;100284.72;;;25.48;46.99
34658;BME280;20865;43.312;27.152;2023-05-27T00:32:05;100274.57;;;25.44;46.99
34658;BME280;20865;43.312;27.152;2023-05-27T00:34:34;100268.75;;;25.43;47.00
34658;BME280;20865;43.312;27.152;2023-05-27T00:37:01;100266.25;;;25.46;46.95
34658;BME280;20865;43.312;27.152;2023-05-27T00:39:29;100267.23;;;25.45;46.73
34658;BME280;20865;43.312;27.152;2023-05-27T00:41:57;100266.53;;;25.42;46.70
34658;BME280;20865;43.312;27.152;2023-05-27T00:44:25;100262.05;;;25.41;46.82
34658;BME280;20865;43.312;27.152;2023-05-27T00:46:53;100257.52;;;25.36;46.65
34658;BME280;20865;43.312;27.152;2023-05-27T00:49:21;100261.67;;;25.31;46.83
34658;BME280;20865;43.312;27.152;2023-05-27T00:51:50;100265.77;;;25.31;46.96
34658;BME280;20865;43.312;27.152;2023-05-27T00:54:18;100261.60;;;25.27;47.21
34658;BME280;20865;43.312;27.152;2023-05-27T00:56:47;100258.01;;;25.26;46.98
34658;BME280;20865;43.312;27.152;2023-05-27T00:59:14;100248.95;;;25.26;46.83
34658;BME280;20865;43.312;27.152;2023-05-27T01:01:42;100253.05;;;25.26;46.69
34658;BME280;20865;43.312;27.152;2023-05-27T01:04:10;100248.95;;;25.26;46.78
34658;BME280;20865;43.312;27.152;2023-05-27T01:09:16;100246.42;;;25.18;46.74
34658;BME280;20865;43.312;27.152;2023-05-27T01:14:15;100248.70;;;25.13;46.72
34658;BME280;20865;43.312;27.152;2023-05-27T01:16:45;100248.70;;;25.13;46.66
34658;BME280;20865;43.312;27.152;2023-05-27T01:19:17;100250.06;;;25.13;46.64
34658;BME280;20865;43.312;27.152;2023-05-27T01:21:47;100248.94;;;25.10;46.59
34658;BME280;20865;43.312;27.152;2023-05-27T01:24:16;100248.08;;;25.10;46.65
34658;BME280;20865;43.312;27.152;2023-05-27T01:26:44;100245.50;;;25.08;46.61
34658;BME280;20865;43.312;27.152;2023-05-27T01:29:12;100246.36;;;25.09;46.70
34658;BME280;20865;43.312;27.152;2023-05-27T01:31:43;100248.23;;;25.08;46.70
34658;BME280;20865;43.312;27.152;2023-05-27T01:34:14;100242.03;;;25.06;46.58
34658;BME280;20865;43.312;27.152;2023-05-27T01:36:51;100243.20;;;25.04;46.49
34658;BME280;20865;43.312;27.152;2023-05-27T01:39:20;100243.68;;;24.93;46.52
34658;BME280;20865;43.312;27.152;2023-05-27T01:41:49;100248.25;;;24.93;46.48
34658;BME280;20865;43.312;27.152;2023-05-27T01:44:18;100245.09;;;24.88;46.48
34658;BME280;20865;43.312;27.152;2023-05-27T01:46:46;100240.13;;;24.87;46.48
34658;BME280;20865;43.312;27.152;2023-05-27T01:49:13;100247.83;;;24.88;46.46
34658;BME280;20865;43.312;27.152;2023-05-27T01:51:41;100249.11;;;24.84;46.61
34658;BME280;20865;43.312;27.152;2023-05-27T01:54:08;100244.27;;;24.82;46.60
34658;BME280;20865;43.312;27.152;2023-05-27T01:56:36;100243.92;;;24.81;46.60
34658;BME280;20865;43.312;27.152;2023-05-27T01:59:04;100242.79;;;24.83;46.55
34658;BME280;20865;43.312;27.152;2023-05-27T02:01:32;100242.28;;;24.84;46.49
34658;BME280;20865;43.312;27.152;2023-05-27T02:04:00;100242.91;;;24.82;46.57
34658;BME280;20865;43.312;27.152;2023-05-27T02:06:27;100238.10;;;24.80;46.56
34658;BME280;20865;43.312;27.152;2023-05-27T02:08:55;100240.60;;;24.77;46.70
34658;BME280;20865;43.312;27.152;2023-05-27T02:11:23;100241.46;;;24.78;46.68
34658;BME280;20865;43.312;27.152;2023-05-27T02:13:51;100236.78;;;24.74;46.75
34658;BME280;20865;43.312;27.152;2023-05-27T02:16:22;100241.46;;;24.78;46.65
34658;BME280;20865;43.312;27.152;2023-05-27T02:18:50;100239.86;;;24.75;46.69
34658;BME280;20865;43.312;27.152;2023-05-27T02:21:17;100242.83;;;24.78;46.81
34658;BME280;20865;43.312;27.152;2023-05-27T02:23:45;100236.35;;;24.79;46.69
34658;BME280;20865;43.312;27.152;2023-05-27T02:26:13;100240.60;;;24.77;46.73
34658;BME280;20865;43.312;27.152;2023-05-27T02:28:40;100237.02;;;24.77;46.90
34658;BME280;20865;43.312;27.152;2023-05-27T02:31:08;100239.82;;;24.81;46.83
34658;BME280;20865;43.312;27.152;2023-05-27T02:33:36;100243.18;;;24.79;46.86
34658;BME280;20865;43.312;27.152;2023-05-27T02:36:04;100245.20;;;24.77;46.87
34658;BME280;20865;43.312;27.152;2023-05-27T02:38:33;100246.30;;;24.80;46.73
34658;BME280;20865;43.312;27.152;2023-05-27T02:41:01;100253.13;;;24.80;46.60
34658;BME280;20865;43.312;27.152;2023-05-27T02:43:29;100257.58;;;24.81;46.68
34658;BME280;20865;43.312;27.152;2023-05-27T02:45:56;100256.48;;;24.78;46.76
34658;BME280;20865;43.312;27.152;2023-05-27T02:48:24;100260.23;;;24.77;46.86
34658;BME280;20865;43.312;27.152;2023-05-27T02:50:51;100255.86;;;24.80;46.79
34658;BME280;20865;43.312;27.152;2023-05-27T02:53:19;100259.72;;;24.77;46.90
34658;BME280;20865;43.312;27.152;2023-05-27T02:55:47;100261.59;;;24.77;46.97
34658;BME280;20865;43.312;27.152;2023-05-27T02:58:14;100265.34;;;24.76;46.85
34658;BME280;20865;43.312;27.152;2023-05-27T03:00:42;100261.52;;;24.73;47.00
34658;BME280;20865;43.312;27.152;2023-05-27T03:03:10;100269.12;;;24.69;47.07
34658;BME280;20865;43.312;27.152;2023-05-27T03:05:37;100262.56;;;24.66;47.09
34658;BME280;20865;43.312;27.152;2023-05-27T03:08:05;100264.55;;;24.64;47.20
34658;BME280;20865;43.312;27.152;2023-05-27T03:10:33;100268.80;;;24.62;47.19
34658;BME280;20865;43.312;27.152;2023-05-27T03:13:01;100265.91;;;24.64;47.33
34658;BME280;20865;43.312;27.152;2023-05-27T03:15:28;100270.09;;;24.68;47.33
34658;BME280;20865;43.312;27.152;2023-05-27T03:17:57;100260.19;;;24.67;47.44
34658;BME280;20865;43.312;27.152;2023-05-27T03:20:26;100266.86;;;24.68;47.64
34658;BME280;20865;43.312;27.152;2023-05-27T03:22:53;100267.45;;;24.72;47.71
34658;BME280;20865;43.312;27.152;2023-05-27T03:25:21;100270.65;;;24.77;47.72
34658;BME280;20865;43.312;27.152;2023-05-27T03:27:49;100270.14;;;24.78;47.80
34658;BME280;20865;43.312;27.152;2023-05-27T03:30:16;100269.24;;;24.83;47.70
34658;BME280;20865;43.312;27.152;2023-05-27T03:32:44;100282.75;;;24.84;47.81
34658;BME280;20865;43.312;27.152;2023-05-27T03:35:12;100267.95;;;24.87;47.97
34658;BME280;20865;43.312;27.152;2023-05-27T03:37:39;100278.61;;;24.90;47.68
34658;BME280;20865;43.312;27.152;2023-05-27T03:40:08;100280.33;;;24.91;47.73
34658;BME280;20865;43.312;27.152;2023-05-27T03:42:36;100288.02;;;24.91;47.67
34658;BME280;20865;43.312;27.152;2023-05-27T03:45:05;100285.02;;;24.94;47.64
34658;BME280;20865;43.312;27.152;2023-05-27T03:47:32;100284.86;;;24.96;47.59
34658;BME280;20865;43.312;27.152;2023-05-27T03:50:02;100287.83;;;24.99;47.54
34658;BME280;20865;43.312;27.152;2023-05-27T03:52:30;100290.64;;;25.03;47.55
34658;BME280;20865;43.312;27.152;2023-05-27T03:54:58;100297.97;;;25.02;47.62
34658;BME280;20865;43.312;27.152;2023-05-27T03:57:25;100297.47;;;25.03;47.57
34658;BME280;20865;43.312;27.152;2023-05-27T03:59:53;100297.97;;;25.02;47.62
34658;BME280;20865;43.312;27.152;2023-05-27T04:02:21;100298.48;;;25.02;47.57
34658;BME280;20865;43.312;27.152;2023-05-27T04:04:49;100292.86;;;25.03;47.39
34658;BME280;20865;43.312;27.152;2023-05-27T04:07:17;100285.75;;;25.06;47.38
34658;BME280;20865;43.312;27.152;2023-05-27T04:09:45;100279.86;;;25.01;47.50
34658;BME280;20865;43.312;27.152;2023-05-27T04:12:13;100284.89;;;25.06;47.41
34658;BME280;20865;43.312;27.152;2023-05-27T04:14:40;100280.30;;;25.06;47.53
34658;BME280;20865;43.312;27.152;2023-05-27T04:17:08;100284.11;;;25.09;47.55
34658;BME280;20865;43.312;27.152;2023-05-27T04:19:36;100281.73;;;25.10;47.67
34658;BME280;20865;43.312;27.152;2023-05-27T04:22:04;100284.81;;;25.17;47.64
34658;BME280;20865;43.312;27.152;2023-05-27T04:24:31;100288.36;;;25.23;47.58
34658;BME280;20865;43.312;27.152;2023-05-27T04:26:59;100289.59;;;25.25;47.57
34658;BME280;20865;43.312;27.152;2023-05-27T04:29:28;100282.10;;;25.27;47.66
34658;BME280;20865;43.312;27.152;2023-05-27T04:31:58;100287.72;;;25.25;47.82
34658;BME280;20865;43.312;27.152;2023-05-27T04:34:27;100292.76;;;25.30;47.92
34658;BME280;20865;43.312;27.152;2023-05-27T04:36:54;100293.84;;;25.33;47.85
34658;BME280;20865;43.312;27.152;2023-05-27T04:39:22;100296.14;;;25.37;47.79
34658;BME280;20865;43.312;27.152;2023-05-27T04:41:50;100291.53;;;25.38;47.91
34658;BME280;20865;43.312;27.152;2023-05-27T04:44:18;100291.64;;;25.42;48.00
34658;BME280;20865;43.312;27.152;2023-05-27T04:46:46;100292.88;;;25.53;47.78
34658;BME280;20865;43.312;27.152;2023-05-27T04:49:14;100293.28;;;25.49;47.90
34658;BME280;20865;43.312;27.152;2023-05-27T04:51:42;100294.02;;;25.51;47.89
34658;BME280;20865;43.312;27.152;2023-05-27T04:54:11;100297.48;;;25.53;47.89
34658;BME280;20865;43.312;27.152;2023-05-27T04:56:39;100290.14;;;25.53;47.89
34658;BME280;20865;43.312;27.152;2023-05-27T04:59:06;100299.15;;;25.59;47.80
34658;BME280;20865;43.312;27.152;2023-05-27T05:01:34;100296.09;;;25.62;47.95
34658;BME280;20865;43.312;27.152;2023-05-27T05:04:03;100298.20;;;25.64;47.96
34658;BME280;20865;43.312;27.152;2023-05-27T05:06:32;100300.49;;;25.69;48.02
34658;BME280;20865;43.312;27.152;2023-05-27T05:09:01;100305.61;;;25.68;48.13
34658;BME280;20865;43.312;27.152;2023-05-27T05:11:28;100303.16;;;25.65;48.24
34658;BME280;20865;43.312;27.152;2023-05-27T05:13:56;100309.64;;;25.64;48.33
34658;BME280;20865;43.312;27.152;2023-05-27T05:16:24;100307.03;;;25.62;48.55
34658;BME280;20865;43.312;27.152;2023-05-27T05:18:53;100310.16;;;25.63;48.46
34658;BME280;20865;43.312;27.152;2023-05-27T05:21:20;100306.56;;;25.63;48.42
34658;BME280;20865;43.312;27.152;2023-05-27T05:23:48;100312.61;;;25.66;48.52
34658;BME280;20865;43.312;27.152;2023-05-27T05:26:16;100308.50;;;25.66;48.47
34658;BME280;20865;43.312;27.152;2023-05-27T05:28:43;100307.48;;;25.68;48.61
34658;BME280;20865;43.312;27.152;2023-05-27T05:31:11;100312.67;;;25.71;48.58
34658;BME280;20865;43.312;27.152;2023-05-27T05:33:39;100313.25;;;25.74;48.63
34658;BME280;20865;43.312;27.152;2023-05-27T05:36:07;100319.30;;;25.78;48.72
34658;BME280;20865;43.312;27.152;2023-05-27T05:38:35;100317.23;;;25.85;48.84
34658;BME280;20865;43.312;27.152;2023-05-27T05:41:02;100323.00;;;25.92;49.10
34658;BME280;20865;43.312;27.152;2023-05-27T05:43:31;100321.98;;;26.03;49.09
34658;BME280;20865;43.312;27.152;2023-05-27T05:45:58;100326.09;;;26.12;49.20
34658;BME280;20865;43.312;27.152;2023-05-27T05:48:28;100317.44;;;26.17;49.12
34658;BME280;20865;43.312;27.152;2023-05-27T05:50:55;100318.50;;;26.30;48.64
34658;BME280;20865;43.312;27.152;2023-05-27T05:53:23;100315.55;;;26.27;48.54
34658;BME280;20865;43.312;27.152;2023-05-27T05:55:51;100317.83;;;26.32;48.29
34658;BME280;20865;43.312;27.152;2023-05-27T05:58:18;100317.98;;;26.40;48.10
34658;BME280;20865;43.312;27.152;2023-05-27T06:00:46;100322.27;;;26.43;48.05
34658;BME280;20865;43.312;27.152;2023-05-27T06:03:13;100324.21;;;26.46;48.02
34658;BME280;20865;43.312;27.152;2023-05-27T06:05:41;100318.47;;;26.49;48.12
34658;BME280;20865;43.312;27.152;2023-05-27T06:08:09;100323.53;;;26.54;47.75
34658;BME280;20865;43.312;27.152;2023-05-27T06:10:36;100323.58;;;26.58;47.56
34658;BME280;20865;43.312;27.152;2023-05-27T06:13:04;100323.30;;;26.61;47.60
34658;BME280;20865;43.312;27.152;2023-05-27T06:15:32;100330.89;;;26.67;47.71
34658;BME280;20865;43.312;27.152;2023-05-27T06:17:59;100324.77;;;26.69;47.67
34658;BME280;20865;43.312;27.152;2023-05-27T06:20:27;100323.74;;;26.70;47.67
34658;BME280;20865;43.312;27.152;2023-05-27T06:22:54;100325.33;;;26.73;47.49
34658;BME280;20865;43.312;27.152;2023-05-27T06:25:22;100321.81;;;26.67;47.57
34658;BME280;20865;43.312;27.152;2023-05-27T06:27:50;100330.59;;;26.70;47.23
34658;BME280;20865;43.312;27.152;2023-05-27T06:30:17;100335.56;;;26.71;47.35
34658;BME280;20865;43.312;27.152;2023-05-27T06:32:45;100331.11;;;26.70;47.18
34658;BME280;20865;43.312;27.152;2023-05-27T06:35:13;100336.77;;;26.58;47.10
34658;BME280;20865;43.312;27.152;2023-05-27T06:37:40;100337.33;;;26.62;46.99
34658;BME280;20865;43.312;27.152;2023-05-27T06:40:09;100337.17;;;26.64;47.28
34658;BME280;20865;43.312;27.152;2023-05-27T06:42:38;100332.20;;;26.63;47.33
34658;BME280;20865;43.312;27.152;2023-05-27T06:45:08;100334.43;;;26.64;47.42
34658;BME280;20865;43.312;27.152;2023-05-27T06:47:36;100339.61;;;26.67;47.41
34658;BME280;20865;43.312;27.152;2023-05-27T06:50:04;100337.04;;;26.65;47.59
34658;BME280;20865;43.312;27.152;2023-05-27T06:52:32;100337.73;;;26.67;47.63
34658;BME280;20865;43.312;27.152;2023-05-27T06:55:01;100339.27;;;26.66;47.64
34658;BME280;20865;43.312;27.152;2023-05-27T06:57:28;100340.69;;;26.70;47.56
34658;BME280;20865;43.312;27.152;2023-05-27T06:59:56;100336.29;;;26.73;47.54
34658;BME280;20865;43.312;27.152;2023-05-27T07:02:24;100339.75;;;26.75;47.37
34658;BME280;20865;43.312;27.152;2023-05-27T07:04:51;100339.59;;;26.76;47.32
34658;BME280;20865;43.312;27.152;2023-05-27T07:07:20;100344.48;;;26.82;47.19
34658;BME280;20865;43.312;27.152;2023-05-27T07:09:48;100335.11;;;26.85;47.03
34658;BME280;20865;43.312;27.152;2023-05-27T07:12:15;100342.70;;;26.91;47.07
34658;BME280;20865;43.312;27.152;2023-05-27T07:14:44;100334.53;;;26.95;46.82
34658;BME280;20865;43.312;27.152;2023-05-27T07:17:12;100329.42;;;26.96;46.95
34658;BME280;20865;43.312;27.152;2023-05-27T07:19:39;100336.33;;;27.00;47.02
34658;BME280;20865;43.312;27.152;2023-05-27T07:22:07;100323.83;;;27.02;47.17
34658;BME280;20865;43.312;27.152;2023-05-27T07:24:35;100325.63;;;27.07;47.35
34658;BME280;20865;43.312;27.152;2023-05-27T07:27:03;100329.52;;;27.14;47.36
34658;BME280;20865;43.312;27.152;2023-05-27T07:29:31;100330.12;;;27.22;47.23
34658;BME280;20865;43.312;27.152;2023-05-27T07:31:58;100324.93;;;27.33;47.54
34658;BME280;20865;43.312;27.152;2023-05-27T07:34:26;100324.93;;;27.33;47.54
34658;BME280;20865;43.312;27.152;2023-05-27T07:36:54;100330.62;;;27.35;46.78
34658;BME280;20865;43.312;27.152;2023-05-27T07:39:22;100321.67;;;27.33;45.48
34658;BME280;20865;43.312;27.152;2023-05-27T07:41:50;100332.37;;;27.40;46.11
34658;BME280;20865;43.312;27.152;2023-05-27T07:44:18;100327.35;;;27.49;45.43
34658;BME280;20865;43.312;27.152;2023-05-27T07:46:47;100317.69;;;27.59;44.53
34658;BME280;20865;43.312;27.152;2023-05-27T07:49:15;100317.69;;;27.59;44.53
34658;BME280;20865;43.312;27.152;2023-05-27T07:51:43;100311.48;;;27.75;44.96
34658;BME280;20865;43.312;27.152;2023-05-27T07:54:10;100311.48;;;27.75;44.96
34658;BME280;20865;43.312;27.152;2023-05-27T07:56:38;100314.33;;;27.79;44.93
34658;BME280;20865;43.312;27.152;2023-05-27T07:59:05;100324.03;;;27.91;44.24
34658;BME280;20865;43.312;27.152;2023-05-27T08:01:33;100320.87;;;28.00;43.80
34658;BME280;20865;43.312;27.152;2023-05-27T08:04:02;100322.09;;;28.06;43.64
34658;BME280;20865;43.312;27.152;2023-05-27T08:06:30;100315.98;;;28.12;44.04
34658;BME280;20865;43.312;27.152;2023-05-27T08:08:57;100323.88;;;28.11;44.13
34658;BME280;20865;43.312;27.152;2023-05-27T08:11:25;100324.73;;;28.11;44.61
34658;BME280;20865;43.312;27.152;2023-05-27T08:13:53;100325.93;;;28.13;43.98
34658;BME280;20865;43.312;27.152;2023-05-27T08:16:20;100330.19;;;28.29;43.98
34658;BME280;20865;43.312;27.152;2023-05-27T08:18:48;100330.19;;;28.29;43.98
34658;BME280;20865;43.312;27.152;2023-05-27T08:21:16;100325.61;;;28.38;43.32
34658;BME280;20865;43.312;27.152;2023-05-27T08:23:43;100325.34;;;28.45;43.23
34658;BME280;20865;43.312;27.152;2023-05-27T08:26:11;100328.55;;;28.62;43.10
34658;BME280;20865;43.312;27.152;2023-05-27T08:28:39;100319.34;;;28.71;43.69
34658;BME280;20865;43.312;27.152;2023-05-27T08:31:07;100318.59;;;28.91;43.64
34658;BME280;20865;43.312;27.152;2023-05-27T08:33:35;100317.88;;;29.15;42.40
34658;BME280;20865;43.312;27.152;2023-05-27T08:36:02;100317.45;;;29.40;41.75
34658;BME280;20865;43.312;27.152;2023-05-27T08:38:30;100317.45;;;29.44;41.83
34658;BME280;20865;43.312;27.152;2023-05-27T08:40:58;100313.74;;;29.62;42.58
34658;BME280;20865;43.312;27.152;2023-05-27T08:43:26;100313.75;;;29.74;42.17
34658;BME280;20865;43.312;27.152;2023-05-27T08:45:54;100318.42;;;29.78;40.78
34658;BME280;20865;43.312;27.152;2023-05-27T08:48:24;100311.36;;;29.83;40.57
34658;BME280;20865;43.312;27.152;2023-05-27T08:50:52;100310.34;;;29.88;40.39
34658;BME280;20865;43.312;27.152;2023-05-27T08:53:20;100313.11;;;30.13;40.68
34658;BME280;20865;43.312;27.152;2023-05-27T08:55:50;100308.48;;;30.34;40.12
34658;BME280;20865;43.312;27.152;2023-05-27T08:58:19;100299.66;;;30.43;40.68
34658;BME280;20865;43.312;27.152;2023-05-27T09:00:47;100294.83;;;30.53;40.40
34658;BME280;20865;43.312;27.152;2023-05-27T09:03:15;100283.44;;;30.60;38.95
34658;BME280;20865;43.312;27.152;2023-05-27T09:05:43;100283.12;;;30.47;38.08
34658;BME280;20865;43.312;27.152;2023-05-27T09:08:10;100298.64;;;30.35;39.64
34658;BME280;20865;43.312;27.152;2023-05-27T09:10:39;100283.48;;;30.35;39.91
34658;BME280;20865;43.312;27.152;2023-05-27T09:13:07;100277.66;;;30.18;39.51
34658;BME280;20865;43.312;27.152;2023-05-27T09:15:35;100282.30;;;30.38;39.06
34658;BME280;20865;43.312;27.152;2023-05-27T09:18:04;100276.41;;;30.49;38.87
34658;BME280;20865;43.312;27.152;2023-05-27T09:20:32;100282.25;;;30.50;38.74
34658;BME280;20865;43.312;27.152;2023-05-27T09:23:01;100277.75;;;30.57;38.74
34658;BME280;20865;43.312;27.152;2023-05-27T09:25:30;100278.08;;;30.67;38.89
34658;BME280;20865;43.312;27.152;2023-05-27T09:27:59;100264.61;;;30.84;38.56
34658;BME280;20865;43.312;27.152;2023-05-27T09:30:28;100269.00;;;31.05;39.58
34658;BME280;20865;43.312;27.152;2023-05-27T09:33:02;100263.34;;;31.30;38.09
34658;BME280;20865;43.312;27.152;2023-05-27T09:35:36;100264.14;;;31.47;36.88
34658;BME280;20865;43.312;27.152;2023-05-27T09:38:07;100264.08;;;31.59;38.79
34658;BME280;20865;43.312;27.152;2023-05-27T09:40:36;100262.89;;;31.53;36.56
34658;BME280;20865;43.312;27.152;2023-05-27T09:43:04;100254.80;;;31.21;37.23
34658;BME280;20865;43.312;27.152;2023-05-27T09:45:33;100249.75;;;31.28;37.95
34658;BME280;20865;43.312;27.152;2023-05-27T09:48:02;100242.72;;;31.22;37.55
34658;BME280;20865;43.312;27.152;2023-05-27T09:50:31;100235.79;;;31.26;37.97
34658;BME280;20865;43.312;27.152;2023-05-27T09:52:59;100224.81;;;31.49;37.93
34658;BME280;20865;43.312;27.152;2023-05-27T09:55:29;100226.16;;;31.53;37.66
34658;BME280;20865;43.312;27.152;2023-05-27T09:57:57;100219.22;;;31.57;37.84
34658;BME280;20865;43.312;27.152;2023-05-27T10:00:27;100215.97;;;31.53;36.50
34658;BME280;20865;43.312;27.152;2023-05-27T10:02:56;100203.52;;;31.58;36.83
34658;BME280;20865;43.312;27.152;2023-05-27T10:05:24;100205.14;;;31.71;38.42
34658;BME280;20865;43.312;27.152;2023-05-27T10:07:53;100211.35;;;31.69;36.94
34658;BME280;20865;43.312;27.152;2023-05-27T10:10:21;100206.07;;;31.63;36.58
34658;BME280;20865;43.312;27.152;2023-05-27T10:12:50;100208.34;;;31.60;36.26
34658;BME280;20865;43.312;27.152;2023-05-27T10:15:28;100203.06;;;31.50;37.11
34658;BME280;20865;43.312;27.152;2023-05-27T10:17:59;100203.55;;;31.53;38.14
34658;BME280;20865;43.312;27.152;2023-05-27T10:20:35;100204.37;;;31.58;37.48
34658;BME280;20865;43.312;27.152;2023-05-27T10:23:16;100204.24;;;31.51;35.99
34658;BME280;20865;43.312;27.152;2023-05-27T10:26:01;100204.88;;;31.30;37.86
34658;BME280;20865;43.312;27.152;2023-05-27T10:28:34;100197.58;;;31.46;36.95
34658;BME280;20865;43.312;27.152;2023-05-27T10:31:09;100194.02;;;31.60;36.91
34658;BME280;20865;43.312;27.152;2023-05-27T10:33:40;100197.34;;;31.74;36.33
34658;BME280;20865;43.312;27.152;2023-05-27T10:36:12;100190.44;;;31.74;35.73
34658;BME280;20865;43.312;27.152;2023-05-27T10:38:42;100187.84;;;31.77;35.96
34658;BME280;20865;43.312;27.152;2023-05-27T10:41:10;100190.03;;;31.82;37.01
34658;BME280;20865;43.312;27.152;2023-05-27T10:43:38;100182.11;;;31.78;35.85
34658;BME280;20865;43.312;27.152;2023-05-27T10:46:08;100178.17;;;31.77;36.09
34658;BME280;20865;43.312;27.152;2023-05-27T10:48:36;100178.55;;;31.74;36.06
34658;BME280;20865;43.312;27.152;2023-05-27T10:51:06;100176.07;;;31.60;35.79
34658;BME280;20865;43.312;27.152;2023-05-27T10:53:36;100178.83;;;31.60;35.87
34658;BME280;20865;43.312;27.152;2023-05-27T10:56:04;100171.00;;;31.49;36.07
34658;BME280;20865;43.312;27.152;2023-05-27T10:58:36;100169.01;;;31.39;36.19
34658;BME280;20865;43.312;27.152;2023-05-27T11:01:09;100170.06;;;31.29;36.46
34658;BME280;20865;43.312;27.152;2023-05-27T11:03:45;100172.17;;;31.23;36.15
34658;BME280;20865;43.312;27.152;2023-05-27T11:06:14;100166.36;;;31.18;36.56
34658;BME280;20865;43.312;27.152;2023-05-27T11:08:43;100154.28;;;31.19;36.31
34658;BME280;20865;43.312;27.152;2023-05-27T11:11:12;100163.08;;;31.19;36.54
34658;BME280;20865;43.312;27.152;2023-05-27T11:13:45;100158.78;;;31.16;36.24
34658;BME280;20865;43.312;27.152;2023-05-27T11:16:14;100148.63;;;31.13;36.02
34658;BME280;20865;43.312;27.152;2023-05-27T11:18:43;100152.83;;;31.04;36.39
34658;BME280;20865;43.312;27.152;2023-05-27T11:21:12;100152.70;;;30.98;36.25
34658;BME280;20865;43.312;27.152;2023-05-27T11:23:43;100161.86;;;30.94;36.05
34658;BME280;20865;43.312;27.152;2023-05-27T11:26:16;100157.15;;;30.76;36.38
34658;BME280;20865;43.312;27.152;2023-05-27T11:31:19;100148.49;;;30.83;36.95
34658;BME280;20865;43.312;27.152;2023-05-27T11:33:49;100145.89;;;30.81;36.40
34658;BME280;20865;43.312;27.152;2023-05-27T11:36:17;100131.45;;;30.75;36.31
34658;BME280;20865;43.312;27.152;2023-05-27T11:41:20;100140.07;;;30.68;35.58
34658;BME280;20865;43.312;27.152;2023-05-27T11:46:21;100131.88;;;30.56;36.15
34658;BME280;20865;43.312;27.152;2023-05-27T11:48:49;100135.00;;;30.53;36.74
34658;BME280;20865;43.312;27.152;2023-05-27T11:51:17;100137.25;;;30.49;36.73
34658;BME280;20865;43.312;27.152;2023-05-27T11:53:46;100126.92;;;30.51;36.63
34658;BME280;20865;43.312;27.152;2023-05-27T11:56:15;100125.54;;;30.51;36.89
34658;BME280;20865;43.312;27.152;2023-05-27T11:58:42;100120.52;;;30.51;36.83
34658;BME280;20865;43.312;27.152;2023-05-27T12:01:10;100116.94;;;30.46;36.79
34658;BME280;20865;43.312;27.152;2023-05-27T12:03:38;100111.57;;;30.53;36.93
34658;BME280;20865;43.312;27.152;2023-05-27T12:06:06;100108.31;;;30.49;37.07
34658;BME280;20865;43.312;27.152;2023-05-27T12:08:33;100098.50;;;30.47;37.04
34658;BME280;20865;43.312;27.152;2023-05-27T12:11:01;100103.11;;;30.54;36.89
34658;BME280;20865;43.312;27.152;2023-05-27T12:13:29;100094.45;;;30.66;36.94
34658;BME280;20865;43.312;27.152;2023-05-27T12:15:58;100101.65;;;30.71;36.85
34658;BME280;20865;43.312;27.152;2023-05-27T12:18:25;100097.84;;;30.72;36.53
34658;BME280;20865;43.312;27.152;2023-05-27T12:20:53;100103.36;;;30.72;37.15
34658;BME280;20865;43.312;27.152;2023-05-27T12:23:24;100105.13;;;30.69;36.72
34658;BME280;20865;43.312;27.152;2023-05-27T12:25:51;100114.38;;;30.72;36.50
34658;BME280;20865;43.312;27.152;2023-05-27T12:28:19;100112.16;;;30.71;36.66
34658;BME280;20865;43.312;27.152;2023-05-27T12:30:47;100122.33;;;30.71;36.58
34658;BME280;20865;43.312;27.152;2023-05-27T12:33:15;100128.77;;;30.59;36.92
34658;BME280;20865;43.312;27.152;2023-05-27T12:35:43;100129.81;;;30.54;38.04
34658;BME280;20865;43.312;27.152;2023-05-27T12:38:10;100135.00;;;30.53;39.11
34658;BME280;20865;43.312;27.152;2023-05-27T12:40:38;100136.39;;;30.49;40.06
34658;BME280;20865;43.312;27.152;2023-05-27T12:43:06;100135.39;;;30.42;40.45
34658;BME280;20865;43.312;27.152;2023-05-27T12:45:33;100134.54;;;30.41;39.57
34658;BME280;20865;43.312;27.152;2023-05-27T12:48:01;100125.27;;;30.34;40.11
34658;BME280;20865;43.312;27.152;2023-05-27T12:50:29;100107.00;;;30.33;40.57
34658;BME280;20865;43.312;27.152;2023-05-27T12:52:57;100100.35;;;30.11;40.76
34658;BME280;20865;43.312;27.152;2023-05-27T12:55:26;100111.88;;;30.19;40.90
34658;BME280;20865;43.312;27.152;2023-05-27T12:57:56;100121.87;;;30.07;41.35